Billings (BIL/KBIL)

Map

Information

Location
Billings, MT
KBIL -
Bad Timezone: GMT-7
Local Time
GMT Time
00:13 / 12:13 am
Gates
Unassigned
No FAA reported delays
METAR KBIL 222353Z 12010KT 10SM FEW075 SCT090 17/03 A2971 RMK AO2 LTG DSNT N SLP056 SHRA DSNT SW-N T01720028 10178 20100 58016
TAF KBIL 222321Z 2300/2324 14009KT P6SM VCSH SCT060 SCT150 FM230200 VRB06KT P6SM VCSH SCT050 BKN100 FM230600 VRB06KT P6SM VCSH SCT020 BKN050 OVC100 FM231100 VRB06KT 5SM -RA SCT015 BKN020 OVC035 FM231400 VRB06KT 6SM -RA SCT020 BKN050 OVC100
  • No charts available